createdAt,value
2018-12-16T00:00:03.838Z,14.13
2018-12-16T00:02:34.879Z,12.87
2018-12-16T00:05:05.890Z,13.80
2018-12-16T00:07:37.076Z,13.70
2018-12-16T00:10:06.695Z,13.27
2018-12-16T00:12:35.842Z,13.83
2018-12-16T00:15:05.617Z,13.60
2018-12-16T00:17:34.759Z,12.80
2018-12-16T00:20:04.013Z,14.17
2018-12-16T00:22:33.261Z,13.37
2018-12-16T00:25:02.968Z,13.20
2018-12-16T00:27:31.990Z,11.47
2018-12-16T00:30:01.078Z,12.30
2018-12-16T00:32:30.131Z,13.43
2018-12-16T00:34:59.138Z,12.77
2018-12-16T00:37:28.157Z,13.63
2018-12-16T00:39:57.217Z,13.40
2018-12-16T00:42:26.223Z,13.90
2018-12-16T00:44:55.281Z,14.17
2018-12-16T00:47:24.492Z,15.10
2018-12-16T00:49:53.539Z,15.20
2018-12-16T00:52:22.621Z,15.33
2018-12-16T00:54:51.694Z,15.40
2018-12-16T00:57:20.797Z,15.37
2018-12-16T00:59:49.871Z,15.10
2018-12-16T01:02:24.036Z,14.93
2018-12-16T01:04:53.188Z,16.47
2018-12-16T01:07:22.242Z,15.83
2018-12-16T01:09:51.321Z,15.47
2018-12-16T01:12:20.305Z,16.37
2018-12-16T01:14:49.455Z,16.60
2018-12-16T01:17:18.579Z,15.97
2018-12-16T01:19:47.931Z,16.00
2018-12-16T01:22:17.179Z,17.20
2018-12-16T01:24:46.469Z,16.90
2018-12-16T01:27:15.494Z,15.80
2018-12-16T01:29:44.757Z,16.43
2018-12-16T01:32:13.821Z,15.77
2018-12-16T01:34:43.282Z,15.77
2018-12-16T01:37:12.317Z,15.40
2018-12-16T01:39:41.381Z,15.67
2018-12-16T01:42:10.585Z,15.30
2018-12-16T01:44:39.606Z,13.87
2018-12-16T01:47:08.653Z,14.03
2018-12-16T01:49:37.655Z,14.90
2018-12-16T01:52:06.746Z,14.53
2018-12-16T01:54:35.870Z,14.00
2018-12-16T01:57:04.971Z,14.20
2018-12-16T01:59:34.033Z,14.47
2018-12-16T02:02:03.247Z,15.07
2018-12-16T02:04:32.475Z,14.40
2018-12-16T02:07:01.554Z,13.90
2018-12-16T02:09:31.304Z,15.17
2018-12-16T02:12:00.314Z,13.97
2018-12-16T02:14:29.381Z,14.60
2018-12-16T02:16:58.649Z,13.80
2018-12-16T02:19:27.673Z,11.80
2018-12-16T02:21:56.695Z,14.20
2018-12-16T02:24:26.018Z,13.70
2018-12-16T02:26:55.019Z,13.13
2018-12-16T02:29:24.090Z,13.50
2018-12-16T02:31:53.149Z,14.47
2018-12-16T02:34:23.300Z,13.37
2018-12-16T02:36:52.433Z,13.70
2018-12-16T02:39:21.462Z,14.50
2018-12-16T02:41:50.482Z,14.07
2018-12-16T02:44:19.524Z,15.47
2018-12-16T02:46:48.623Z,14.83
2018-12-16T02:49:17.703Z,14.57
2018-12-16T02:51:46.731Z,14.10
2018-12-16T02:54:15.767Z,12.93
2018-12-16T02:56:45.104Z,13.80
2018-12-16T02:59:14.160Z,13.63
2018-12-16T03:01:48.068Z,13.17
2018-12-16T03:04:17.303Z,12.30
2018-12-16T03:06:46.292Z,11.80
2018-12-16T03:09:15.282Z,11.00
2018-12-16T03:11:44.552Z,11.57
2018-12-16T03:14:13.598Z,12.00
2018-12-16T03:16:42.902Z,10.30
2018-12-16T03:19:11.937Z,11.53
2018-12-16T03:21:40.980Z,10.47
2018-12-16T03:24:10.105Z,10.33
2018-12-16T03:26:39.173Z,10.93
2018-12-16T03:29:08.202Z,10.47
2018-12-16T03:31:37.523Z,10.43
2018-12-16T03:34:07.559Z,10.40
2018-12-16T03:36:36.587Z,10.17
2018-12-16T03:39:07.349Z,9.73
2018-12-16T03:41:37.235Z,9.20
2018-12-16T03:44:06.282Z,9.77
2018-12-16T03:46:35.700Z,9.63
2018-12-16T03:49:04.890Z,9.93
2018-12-16T03:51:33.972Z,9.40
2018-12-16T03:54:03.061Z,10.03
2018-12-16T03:56:32.058Z,9.60
2018-12-16T03:59:18.611Z,9.37
2018-12-16T04:01:53.012Z,8.97
2018-12-16T04:04:22.020Z,9.70
2018-12-16T04:06:51.281Z,9.00
2018-12-16T04:09:20.361Z,9.40
2018-12-16T04:11:49.375Z,9.47
2018-12-16T04:14:18.566Z,9.50
2018-12-16T04:16:49.584Z,9.27
2018-12-16T04:19:18.642Z,9.40
2018-12-16T04:21:47.643Z,9.13
2018-12-16T04:24:17.164Z,8.90
2018-12-16T04:26:46.166Z,9.10
2018-12-16T04:29:15.206Z,9.77
2018-12-16T04:31:44.211Z,9.13
2018-12-16T04:34:13.321Z,9.17
2018-12-16T04:36:42.344Z,8.53
2018-12-16T04:39:11.392Z,8.57
2018-12-16T04:41:40.431Z,8.43
2018-12-16T04:44:09.428Z,9.17
2018-12-16T04:46:38.469Z,9.00
2018-12-16T04:49:07.517Z,8.60
2018-12-16T04:51:36.699Z,9.20
2018-12-16T04:54:05.964Z,8.63
2018-12-16T04:56:35.007Z,8.93
2018-12-16T04:59:04.053Z,9.00
2018-12-16T05:01:33.148Z,8.77
2018-12-16T05:04:02.147Z,7.87
2018-12-16T05:06:31.311Z,8.57
2018-12-16T05:09:00.431Z,9.17
2018-12-16T05:11:29.749Z,9.07
2018-12-16T05:13:58.798Z,8.50
2018-12-16T05:16:27.826Z,8.53
2018-12-16T05:18:56.990Z,8.57
2018-12-16T05:21:25.998Z,8.07
2018-12-16T05:23:55.025Z,8.03
2018-12-16T05:26:24.273Z,8.43
2018-12-16T05:28:53.471Z,8.53
2018-12-16T05:31:22.493Z,8.10
2018-12-16T05:33:51.530Z,7.63
2018-12-16T05:36:20.589Z,8.27
2018-12-16T05:38:50.033Z,8.03
2018-12-16T05:41:19.021Z,9.07
2018-12-16T05:43:48.045Z,7.83
2018-12-16T05:46:17.059Z,7.60
2018-12-16T05:48:46.159Z,8.10
2018-12-16T05:51:15.279Z,8.00
2018-12-16T05:53:48.544Z,8.33
2018-12-16T05:56:15.481Z,7.70
2018-12-16T05:58:44.503Z,8.57
2018-12-16T06:01:13.547Z,8.27
2018-12-16T06:03:43.273Z,7.80
2018-12-16T06:06:12.268Z,8.20
2018-12-16T06:08:41.267Z,8.23
2018-12-16T06:11:10.447Z,9.00
2018-12-16T06:13:39.475Z,7.30
2018-12-16T06:16:08.473Z,8.43
2018-12-16T06:18:37.759Z,8.13
2018-12-16T06:21:06.776Z,9.00
2018-12-16T06:23:35.810Z,8.17
2018-12-16T06:26:04.959Z,7.93
2018-12-16T06:28:33.962Z,8.83
2018-12-16T06:31:02.976Z,8.80
2018-12-16T06:33:31.968Z,7.77
2018-12-16T06:36:01.058Z,8.60
2018-12-16T06:38:30.034Z,8.63
2018-12-16T06:40:59.053Z,8.23
2018-12-16T06:43:28.196Z,7.97
2018-12-16T06:45:57.292Z,8.57
2018-12-16T06:48:27.620Z,8.33
2018-12-16T06:50:56.826Z,8.70
2018-12-16T06:53:25.844Z,9.37
2018-12-16T06:55:54.832Z,8.57
2018-12-16T06:58:23.964Z,8.10
2018-12-16T07:00:53.016Z,8.27
2018-12-16T07:03:22.039Z,8.90
2018-12-16T07:05:51.022Z,8.37
2018-12-16T07:08:20.061Z,8.90
2018-12-16T07:10:49.318Z,8.13
2018-12-16T07:13:18.339Z,8.23
2018-12-16T07:15:47.387Z,8.77
2018-12-16T07:18:16.452Z,8.10
2018-12-16T07:20:45.454Z,8.90
2018-12-16T07:23:14.552Z,8.70
2018-12-16T07:25:43.629Z,8.53
2018-12-16T07:28:12.702Z,8.70
2018-12-16T07:30:41.825Z,8.13
2018-12-16T07:33:10.880Z,9.17
2018-12-16T07:35:40.259Z,9.13
2018-12-16T07:38:09.412Z,9.00
2018-12-16T07:40:38.554Z,9.03
2018-12-16T07:43:07.685Z,10.20
2018-12-16T07:45:37.179Z,8.80
2018-12-16T07:48:06.404Z,10.27
2018-12-16T07:50:35.821Z,9.47
2018-12-16T07:53:04.945Z,9.57
2018-12-16T07:55:34.361Z,10.10
2018-12-16T07:58:03.386Z,9.80
2018-12-16T08:00:32.395Z,9.13
2018-12-16T08:03:03.433Z,10.07
2018-12-16T08:05:32.493Z,9.93
2018-12-16T08:08:01.561Z,10.37
2018-12-16T08:10:30.715Z,10.40
2018-12-16T08:13:00.758Z,10.70
2018-12-16T08:15:29.827Z,9.83
2018-12-16T08:17:58.876Z,10.03
2018-12-16T08:20:27.983Z,9.90
2018-12-16T08:23:03.481Z,10.50
2018-12-16T08:25:32.928Z,10.50
2018-12-16T08:28:01.954Z,10.00
2018-12-16T08:30:31.071Z,9.73
2018-12-16T08:33:00.092Z,10.60
2018-12-16T08:35:29.439Z,10.53
2018-12-16T08:37:58.547Z,10.10
2018-12-16T08:40:27.602Z,10.53
2018-12-16T08:42:56.697Z,10.93
2018-12-16T08:45:25.751Z,11.60
2018-12-16T08:47:54.755Z,11.43
2018-12-16T08:50:23.866Z,12.43
2018-12-16T08:52:53.137Z,11.23
2018-12-16T08:55:22.197Z,12.53
2018-12-16T08:57:51.406Z,12.13
2018-12-16T09:00:20.430Z,12.43
2018-12-16T09:02:49.651Z,12.23
2018-12-16T09:05:18.946Z,12.00
2018-12-16T09:07:48.344Z,11.67
2018-12-16T09:10:17.394Z,12.13
2018-12-16T09:12:46.439Z,11.87
2018-12-16T09:15:17.447Z,13.17
2018-12-16T09:17:46.801Z,12.97
2018-12-16T09:20:15.829Z,12.57
2018-12-16T09:22:44.872Z,13.13
2018-12-16T09:25:14.031Z,13.83
2018-12-16T09:27:43.161Z,13.93
2018-12-16T09:30:12.598Z,12.87
2018-12-16T09:32:41.691Z,12.70
2018-12-16T09:35:10.685Z,14.00
2018-12-16T09:37:39.829Z,13.90
2018-12-16T09:40:09.148Z,13.97
2018-12-16T09:42:38.269Z,14.90
2018-12-16T09:45:07.666Z,14.93
2018-12-16T09:47:36.977Z,15.00
2018-12-16T09:50:06.653Z,15.40
2018-12-16T09:52:35.707Z,15.83
2018-12-16T09:55:05.733Z,15.17
2018-12-16T09:57:34.835Z,15.73
2018-12-16T10:00:05.524Z,14.83
2018-12-16T10:02:34.837Z,16.13
2018-12-16T10:05:04.663Z,15.17
2018-12-16T10:07:34.010Z,15.23
2018-12-16T10:10:03.130Z,15.27
2018-12-16T10:12:32.146Z,15.57
2018-12-16T10:15:02.275Z,15.73
2018-12-16T10:17:31.378Z,16.70
2018-12-16T10:20:00.433Z,16.40
2018-12-16T10:22:29.442Z,16.17
2018-12-16T10:24:58.449Z,16.87
2018-12-16T10:27:27.515Z,15.97
2018-12-16T10:29:56.684Z,16.37
2018-12-16T10:32:25.830Z,17.70
2018-12-16T10:34:55.070Z,17.20
2018-12-16T10:37:24.161Z,16.93
2018-12-16T10:39:53.189Z,18.07
2018-12-16T10:42:23.061Z,18.27
2018-12-16T10:44:52.343Z,17.37
2018-12-16T10:47:21.593Z,16.70
2018-12-16T10:49:50.893Z,18.50
2018-12-16T10:52:19.886Z,18.57
2018-12-16T10:54:50.728Z,17.77
2018-12-16T10:57:19.750Z,18.70
2018-12-16T10:59:48.850Z,18.37
2018-12-16T11:02:17.939Z,18.30
2018-12-16T11:04:47.342Z,17.30
2018-12-16T11:07:16.523Z,17.90
2018-12-16T11:09:45.539Z,18.87
2018-12-16T11:14:58.605Z,19.73
2018-12-16T11:17:28.250Z,18.63
2018-12-16T11:19:57.541Z,19.30
2018-12-16T11:22:33.046Z,18.80
2018-12-16T11:25:05.607Z,18.60
2018-12-16T11:27:33.371Z,18.67
2018-12-16T11:30:02.452Z,18.07
2018-12-16T11:32:32.046Z,18.67
2018-12-16T11:35:01.301Z,19.70
2018-12-16T11:37:30.520Z,18.67
2018-12-16T11:39:59.614Z,19.47
2018-12-16T11:42:28.622Z,17.47
2018-12-16T11:44:57.668Z,17.30
2018-12-16T11:47:26.806Z,18.77
2018-12-16T11:49:55.871Z,18.77
2018-12-16T11:52:25.057Z,19.13
2018-12-16T11:54:54.186Z,18.53
2018-12-16T11:57:23.217Z,18.77
2018-12-16T11:59:52.367Z,19.43
2018-12-16T12:02:21.455Z,19.40
2018-12-16T12:04:52.528Z,18.27
2018-12-16T12:07:21.559Z,18.83
2018-12-16T12:09:50.566Z,20.57
2018-12-16T12:12:19.624Z,18.70
2018-12-16T12:14:48.638Z,19.40
2018-12-16T12:17:17.642Z,19.33
2018-12-16T12:19:46.936Z,20.37
2018-12-16T12:22:16.065Z,20.37
2018-12-16T12:24:45.125Z,19.53
2018-12-16T12:27:14.253Z,21.30
2018-12-16T12:29:43.277Z,19.03
2018-12-16T12:32:12.322Z,20.27
2018-12-16T12:34:41.340Z,20.37
2018-12-16T12:37:10.416Z,20.20
2018-12-16T12:39:40.309Z,20.30
2018-12-16T12:42:09.632Z,20.50
2018-12-16T12:44:38.669Z,21.70
2018-12-16T12:47:07.750Z,20.60
2018-12-16T12:49:36.901Z,21.17
2018-12-16T12:52:06.005Z,20.33
2018-12-16T12:54:35.197Z,21.17
2018-12-16T12:57:04.283Z,21.07
2018-12-16T12:59:33.549Z,22.20
2018-12-16T13:02:03.645Z,21.67
2018-12-16T13:04:33.355Z,21.17
2018-12-16T13:07:02.402Z,21.13
2018-12-16T13:09:31.607Z,22.37
2018-12-16T13:12:00.692Z,22.20
2018-12-16T13:14:29.834Z,22.10
2018-12-16T13:16:59.016Z,21.67
2018-12-16T13:19:29.699Z,22.27
2018-12-16T13:22:01.027Z,23.30
2018-12-16T13:24:30.252Z,22.00
2018-12-16T13:26:59.364Z,22.57
2018-12-16T13:29:28.469Z,23.37
2018-12-16T13:31:57.484Z,21.93
2018-12-16T13:34:26.534Z,23.90
2018-12-16T13:36:55.603Z,23.57
2018-12-16T13:39:24.611Z,24.17
2018-12-16T13:41:53.705Z,23.27
2018-12-16T13:44:22.743Z,24.30
2018-12-16T13:46:51.815Z,24.23
2018-12-16T13:49:20.836Z,23.17
2018-12-16T13:51:49.881Z,23.93
2018-12-16T13:54:19.364Z,24.40
2018-12-16T13:56:48.442Z,24.57
2018-12-16T13:59:17.470Z,24.37
2018-12-16T14:01:46.638Z,25.23
2018-12-16T14:04:16.000Z,24.03
2018-12-16T14:06:45.056Z,24.80
2018-12-16T14:09:15.203Z,25.23
2018-12-16T14:11:44.499Z,26.23
2018-12-16T14:14:13.569Z,25.10
2018-12-16T14:16:42.607Z,26.90
2018-12-16T14:19:11.663Z,25.40
2018-12-16T14:21:41.015Z,25.50
2018-12-16T14:24:10.404Z,25.87
2018-12-16T14:26:39.454Z,26.93
2018-12-16T14:29:08.481Z,25.33
2018-12-16T14:31:37.647Z,24.77
2018-12-16T14:34:08.349Z,26.07
2018-12-16T14:36:37.455Z,25.60
2018-12-16T14:39:07.858Z,25.37
2018-12-16T14:41:38.898Z,26.13
2018-12-16T14:44:07.889Z,26.50
2018-12-16T14:46:36.958Z,25.53
2018-12-16T14:49:06.034Z,26.77
2018-12-16T14:51:35.287Z,27.07
2018-12-16T14:54:04.539Z,27.80
2018-12-16T14:56:33.646Z,26.47
2018-12-16T14:59:02.789Z,27.67
2018-12-16T15:01:32.036Z,27.93
2018-12-16T15:04:01.073Z,27.70
2018-12-16T15:06:31.442Z,27.30
2018-12-16T15:09:00.521Z,28.40
2018-12-16T15:11:31.727Z,28.33
2018-12-16T15:14:01.175Z,28.47
2018-12-16T15:16:30.363Z,29.77
2018-12-16T15:18:59.615Z,28.90
2018-12-16T15:21:28.660Z,31.10
2018-12-16T15:23:57.853Z,29.43
2018-12-16T15:26:27.219Z,28.77
2018-12-16T15:28:56.267Z,30.13
2018-12-16T15:31:25.554Z,31.90
2018-12-16T15:33:55.796Z,32.07
2018-12-16T15:36:24.929Z,31.23
2018-12-16T15:38:54.201Z,31.80
2018-12-16T15:41:24.555Z,31.93
2018-12-16T15:43:53.642Z,33.77
2018-12-16T15:46:22.717Z,33.13
2018-12-16T15:48:51.877Z,33.53
2018-12-16T15:51:20.941Z,32.93
2018-12-16T15:53:50.342Z,34.37
2018-12-16T15:56:19.747Z,35.53
2018-12-16T15:58:48.889Z,34.83
2018-12-16T16:01:18.541Z,35.23
2018-12-16T16:03:54.515Z,34.40
2018-12-16T16:06:23.582Z,34.43
2018-12-16T16:08:52.726Z,35.73
2018-12-16T16:11:21.818Z,35.43
2018-12-16T16:13:51.526Z,36.20
2018-12-16T16:16:20.642Z,35.23
2018-12-16T16:18:49.724Z,35.67
2018-12-16T16:21:18.873Z,34.57
2018-12-16T16:23:50.502Z,33.87
2018-12-16T16:26:19.558Z,35.10
2018-12-16T16:28:48.728Z,34.47
2018-12-16T16:31:17.910Z,36.40
2018-12-16T16:33:47.350Z,36.97
2018-12-16T16:36:16.467Z,35.50
2018-12-16T16:38:46.118Z,37.40
2018-12-16T16:41:15.242Z,34.57
2018-12-16T16:43:44.387Z,35.87
2018-12-16T16:46:13.472Z,36.03
2018-12-16T16:48:42.608Z,36.03
2018-12-16T16:51:12.004Z,35.73
2018-12-16T16:53:41.275Z,35.67
2018-12-16T16:56:10.358Z,36.20
2018-12-16T16:58:39.833Z,36.27
2018-12-16T17:01:09.463Z,35.30
2018-12-16T17:03:38.557Z,35.63
2018-12-16T17:06:10.898Z,35.47
2018-12-16T17:08:40.082Z,35.50
2018-12-16T17:11:09.792Z,35.20
2018-12-16T17:13:38.830Z,34.93
2018-12-16T17:16:08.373Z,34.70
2018-12-16T17:18:37.992Z,34.77
2018-12-16T17:21:07.506Z,35.77
2018-12-16T17:23:36.935Z,33.80
2018-12-16T17:26:06.110Z,34.93
2018-12-16T17:28:35.286Z,34.93
2018-12-16T17:31:04.371Z,34.00
2018-12-16T17:33:33.808Z,35.77
2018-12-16T17:36:03.412Z,34.13
2018-12-16T17:38:32.711Z,33.93
2018-12-16T17:41:01.941Z,32.70
2018-12-16T17:43:31.370Z,33.83
2018-12-16T17:46:00.382Z,33.00
2018-12-16T17:48:29.461Z,33.53
2018-12-16T17:50:58.550Z,33.53
2018-12-16T17:53:27.902Z,33.17
2018-12-16T17:55:57.535Z,32.50
2018-12-16T17:58:27.018Z,33.17
2018-12-16T18:00:56.374Z,32.80
2018-12-16T18:03:25.722Z,31.33
2018-12-16T18:05:54.816Z,30.63
2018-12-16T18:08:24.004Z,33.00
2018-12-16T18:10:53.098Z,32.07
2018-12-16T18:13:22.204Z,30.93
2018-12-16T18:15:51.264Z,31.10
2018-12-16T18:18:20.305Z,32.93
2018-12-16T18:20:49.367Z,30.70
2018-12-16T18:23:18.870Z,30.10
2018-12-16T18:25:47.986Z,31.67
2018-12-16T18:28:17.015Z,29.97
2018-12-16T18:30:46.157Z,31.23
2018-12-16T18:33:15.490Z,31.10
2018-12-16T18:35:44.525Z,29.93
2018-12-16T18:38:20.036Z,30.57
2018-12-16T18:40:49.135Z,31.10
2018-12-16T18:43:18.201Z,30.90
2018-12-16T18:45:47.238Z,29.47
2018-12-16T18:48:16.493Z,31.67
2018-12-16T18:50:45.565Z,30.80
2018-12-16T18:53:15.832Z,30.73
2018-12-16T18:55:45.329Z,29.47
2018-12-16T18:58:14.540Z,29.77
2018-12-16T19:00:43.573Z,30.30
2018-12-16T19:03:12.613Z,31.40
2018-12-16T19:05:41.666Z,29.53
2018-12-16T19:08:11.292Z,30.27
2018-12-16T19:10:40.482Z,31.43
2018-12-16T19:13:09.676Z,31.87
2018-12-16T19:15:38.748Z,30.37
2018-12-16T19:18:07.875Z,31.23
2018-12-16T19:20:37.130Z,31.23
2018-12-16T19:23:06.875Z,30.50
2018-12-16T19:25:36.309Z,29.30
2018-12-16T19:28:05.648Z,29.87
2018-12-16T19:30:35.044Z,30.70
2018-12-16T19:33:06.409Z,31.63
2018-12-16T19:35:35.740Z,30.97
2018-12-16T19:38:05.253Z,30.13
2018-12-16T19:40:34.625Z,30.97
2018-12-16T19:43:04.052Z,30.20
2018-12-16T19:45:33.264Z,31.57
2018-12-16T19:48:02.473Z,30.80
2018-12-16T19:50:31.872Z,29.53
2018-12-16T19:53:01.091Z,31.93
2018-12-16T19:55:30.160Z,32.07
2018-12-16T19:57:59.680Z,31.53
2018-12-16T20:00:28.774Z,30.47
2018-12-16T20:02:58.623Z,31.20
2018-12-16T20:05:27.985Z,31.17
2018-12-16T20:07:57.093Z,31.00
2018-12-16T20:10:26.155Z,30.87
2018-12-16T20:12:55.469Z,30.93
2018-12-16T20:15:24.777Z,31.40
2018-12-16T20:17:54.118Z,31.97
2018-12-16T20:20:23.457Z,33.27
2018-12-16T20:22:52.564Z,31.73
2018-12-16T20:25:21.586Z,30.83
2018-12-16T20:27:50.942Z,31.70
2018-12-16T20:30:20.023Z,31.70
2018-12-16T20:32:49.262Z,32.00
2018-12-16T20:35:19.339Z,32.87
2018-12-16T20:37:49.144Z,32.23
2018-12-16T20:40:18.210Z,32.40
2018-12-16T20:42:47.474Z,31.13
2018-12-16T20:45:16.542Z,32.87
2018-12-16T20:47:45.708Z,31.23
2018-12-16T20:50:14.806Z,31.03
2018-12-16T20:52:43.864Z,32.80
2018-12-16T20:55:13.200Z,32.17
2018-12-16T20:57:42.268Z,31.80
2018-12-16T21:00:11.759Z,32.53
2018-12-16T21:02:40.943Z,32.83
2018-12-16T21:05:10.192Z,33.30
2018-12-16T21:07:39.785Z,33.27
2018-12-16T21:10:09.046Z,32.13
2018-12-16T21:14:45.378Z,32.83
2018-12-16T21:19:21.308Z,32.43
2018-12-16T21:21:50.503Z,31.23
2018-12-16T21:24:20.335Z,33.13
2018-12-16T21:26:49.619Z,33.03
2018-12-16T21:29:18.637Z,31.40
2018-12-16T21:31:47.703Z,32.03
2018-12-16T21:34:16.723Z,31.97
2018-12-16T21:36:45.971Z,31.27
2018-12-16T21:39:15.465Z,29.43
2018-12-16T21:41:45.601Z,29.93
2018-12-16T21:44:14.850Z,28.77
2018-12-16T21:46:43.939Z,30.03
2018-12-16T21:49:13.043Z,28.57
2018-12-16T21:51:42.490Z,28.47
2018-12-16T21:54:11.609Z,30.60
2018-12-16T21:56:47.082Z,30.60
2018-12-16T21:59:16.188Z,30.50
2018-12-16T22:01:45.222Z,31.57
2018-12-16T22:04:14.318Z,32.40
2018-12-16T22:06:43.693Z,31.07
2018-12-16T22:09:12.759Z,31.27
2018-12-16T22:11:41.857Z,32.83
2018-12-16T22:14:11.026Z,32.40
2018-12-16T22:16:40.033Z,32.83
2018-12-16T22:19:09.578Z,31.43
2018-12-16T22:21:38.574Z,34.20
2018-12-16T22:24:07.615Z,31.33
2018-12-16T22:26:36.673Z,29.90
2018-12-16T22:29:05.790Z,30.33
2018-12-16T22:31:34.876Z,28.27
2018-12-16T22:34:04.380Z,29.40
2018-12-16T22:36:33.419Z,29.83
2018-12-16T22:39:02.986Z,31.20
2018-12-16T22:41:34.162Z,33.07
2018-12-16T22:44:03.331Z,30.03
2018-12-16T22:46:32.823Z,32.13
2018-12-16T22:49:01.882Z,30.93
2018-12-16T22:51:30.966Z,32.77
2018-12-16T22:53:59.958Z,33.60
2018-12-16T22:56:29.002Z,32.67
2018-12-16T22:58:58.070Z,33.90
2018-12-16T23:01:27.224Z,32.10
2018-12-16T23:03:56.519Z,32.07
2018-12-16T23:06:25.598Z,30.70
2018-12-16T23:08:54.664Z,32.87
2018-12-16T23:11:23.674Z,31.57
2018-12-16T23:13:54.830Z,30.77
2018-12-16T23:16:23.904Z,30.27
2018-12-16T23:18:53.285Z,31.93
2018-12-16T23:21:22.331Z,31.13
2018-12-16T23:23:51.373Z,31.17
2018-12-16T23:26:20.588Z,30.23
2018-12-16T23:28:49.589Z,30.27
2018-12-16T23:31:18.730Z,30.90
2018-12-16T23:33:47.739Z,29.37
2018-12-16T23:36:17.259Z,28.57
2018-12-16T23:38:46.267Z,27.97
2018-12-16T23:41:15.852Z,27.97
2018-12-16T23:43:45.108Z,28.30
2018-12-16T23:46:14.152Z,28.50
2018-12-16T23:48:43.197Z,27.93
2018-12-16T23:51:12.206Z,27.07
2018-12-16T23:53:41.334Z,26.93
2018-12-16T23:56:18.669Z,25.90
2018-12-16T23:58:47.809Z,24.47
